Laverton (Victoria), Victoria

5:16 AM AEST on July 24, 2016 (GMT +1000)
Derrimut Heath Estate | | Change Station

Elev 98 ft 37.86 °S, 144.70 °E | Updated 24 seconds ago

Clear
Clear
37.0 °F
Feels Like 37 °F
N
1.3
Wind Variable Wind from NW
Gusts 2.5 mph

Today
High -- | Low -- °F
--% Chance of Precip.
Yesterday
High -- | Low -- °F
Precip. -- in
Pressure 29.86 in
Visibility -9999.0 miles
Clouds
Windchill 37 °F
Dew Point 36 °F
Humidity 97%
Rainfall 0.00 in
Snow Depth Not available.
7:28 AM 5:27 PM
Waning Gibbous, 83% visible
METAR YMML 231900Z 36011KT CAVOK 03/01 Q1011 FM2100 36015G27KT CAVOK FM2100 MOD TURB BLW 5000FT
Pressure 29.86 in
Visibility -9999.0 miles
Clouds
Windchill 37 °F
Dew Point 36 °F
Humidity 97%
Rainfall 0.00 in
Snow Depth Not available.
7:28 AM 5:27 PM
Waning Gibbous, 83% visible
METAR YMML 231900Z 36011KT CAVOK 03/01 Q1011 FM2100 36015G27KT CAVOK FM2100 MOD TURB BLW 5000FT

10-Day Weather Forecast

Almanac

Astronomy

Jul. 24, 2016 Rise Set
Actual Time
Civil Twilight
Nautical Twilight
Astronomical Twilight
Moon
Length of Visible Light
Length of Day
Tomorrow will be .
, % of the Moon is Illuminated

Today's Extremes

Country Highs Country Lows

Community

WunderPhotos

Upload Photos

1,926,896 photos uploaded!

WunderBlog® & News

Nearby

Air Quality

  Air Quality AQ Index Pollutant
Not available.

Snow Depth

Station Depth Elevation

Earthquake Activity

City Distance Mag. Time & Date
Minimum magnitude displayed is 2.5.

Coastal Water Temperatures

Place Temperature

Stations

Nearby Weather Stations

Station Location Temp. Windchill Dew Point Humidity Wind Precip. Elev Updated Type